To NAV CANADA Home Page Login to a new session Search on AWWS site Feedback and Comments Disclaimer Vers la page française équivalente Tips FAQ What's new on the site To the Forecasts and Observations / NOTAM section To "File a Flight Plan" website Publications and other links Update of the User's profile FIC Telephone Numbers My Weather Data Folder Route Weather Data Regional Weather Data Local Weather Data To the Forecasts and Observations / NOTAM section
Request Generated 05/28/2015 at 07:38:56 UTC . Weather information available at that time is displayed.

METAR/TAF

WINDSOR/ON    

METAR CYQG 280700Z 33004KT 12SM SKC 17/14 A3014 RMK SLP207 DENSITY
ALT 700FT=
METAR CYQG 280600Z 32004KT 15SM SKC 18/14 A3012 RMK SLP199 DENSITY
ALT 800FT=
METAR CYQG 280500Z 32006KT 15SM SKC 19/14 A3009 RMK SLP188 DENSITY
ALT 1000FT=

TAF CYQG 280538Z 2806/2906 32007KT P6SM SKC
FM281300 03006KT P6SM FEW025
BECMG 2813/2815 08006KT
BECMG 2816/2818 15008KT
FM290200 VRB03KT P6SM SKC
RMK NXT FCST BY 281200Z=
Your time UTC time
Weather data provided by Environment Canada and NAV CANADA